Time;durP1;ratioP1;P1;durP2;ratioP2;P2;SDS_P1;SDS_P2;PMS_P1;PMS_P2;Temp;Humidity;BMP_temperature;BMP_pressure;BME280_temperature;BME280_humidity;BME280_pressure;Samples;Min_cycle;Max_cycle;Signal;HPM_P1;HPM_P2
2021/06/07 00:01:36;;;;;;;1.30;0.73;;;15.30;90.40;;;;;;5039643;28;20203;-69
2021/06/07 00:04:04;;;;;;;1.15;0.77;;;15.30;90.40;;;;;;5047802;28;20135;-69
2021/06/07 00:06:31;;;;;;;1.30;0.68;;;15.20;90.40;;;;;;5038688;28;20428;-69
2021/06/07 00:08:58;;;;;;;2.90;0.90;;;15.20;90.40;;;;;;5059276;28;20044;-68
2021/06/07 00:11:25;;;;;;;0.85;0.50;;;15.10;90.50;;;;;;5046961;28;20134;-68
2021/06/07 00:13:52;;;;;;;2.25;0.80;;;15.10;90.50;;;;;;5053900;28;20918;-68
2021/06/07 00:16:19;;;;;;;1.98;0.65;;;15.00;90.60;;;;;;5027502;28;20497;-69
2021/06/07 00:18:46;;;;;;;2.05;1.00;;;15.00;90.50;;;;;;5050211;28;20041;-68
2021/06/07 00:21:20;;;;;;;0.80;0.50;;;15.00;90.50;;;;;;5053227;28;20049;-69
2021/06/07 00:23:50;;;;;;;1.08;0.63;;;14.90;90.50;;;;;;5055040;28;20085;-69
2021/06/07 00:26:17;;;;;;;1.85;0.60;;;14.90;90.50;;;;;;5053414;28;20069;-69
2021/06/07 00:28:44;;;;;;;3.15;0.70;;;14.90;90.50;;;;;;5054694;28;20096;-69
2021/06/07 00:31:12;;;;;;;1.40;0.75;;;14.80;90.50;;;;;;5067087;28;20065;-69
2021/06/07 00:33:40;;;;;;;0.65;0.60;;;14.70;90.60;;;;;;5048960;28;20088;-68
2021/06/07 00:36:08;;;;;;;1.73;0.97;;;14.70;90.70;;;;;;5047284;28;20079;-68
2021/06/07 00:38:36;;;;;;;1.25;0.70;;;14.60;90.70;;;;;;5049491;28;20137;-69
2021/06/07 00:41:06;;;;;;;1.08;0.70;;;14.60;91.00;;;;;;5047046;28;20119;-68
2021/06/07 00:43:33;;;;;;;0.70;0.70;;;14.60;90.70;;;;;;5053202;28;20072;-69
2021/06/07 00:46:00;;;;;;;1.33;0.80;;;14.50;90.60;;;;;;5028707;28;20083;-70
2021/06/07 00:48:27;;;;;;;1.88;0.77;;;14.50;90.60;;;;;;5056174;28;20079;-69
2021/06/07 00:51:04;;;;;;;2.45;0.85;;;14.40;90.60;;;;;;5043454;28;20045;-69
2021/06/07 00:53:31;;;;;;;0.70;0.70;;;14.40;90.60;;;;;;5035134;28;20102;-69
2021/06/07 00:56:01;;;;;;;0.97;0.57;;;14.30;90.90;;;;;;5053470;28;20068;-70
2021/06/07 00:58:36;;;;;;;2.25;0.75;;;14.30;90.60;;;;;;5055405;28;20817;-69
2021/06/07 01:01:06;;;;;;;1.27;0.80;;;14.30;90.60;;;;;;5046943;28;20056;-69
2021/06/07 01:03:34;;;;;;;0.70;0.60;;;14.20;90.60;;;;;;5046227;28;20045;-69
2021/06/07 01:06:01;;;;;;;1.40;0.63;;;14.20;90.60;;;;;;5054326;28;20085;-69
2021/06/07 01:08:28;;;;;;;2.10;0.80;;;14.10;90.60;;;;;;5050387;28;20734;-69
2021/06/07 01:10:56;;;;;;;0.85;0.70;;;14.10;90.60;;;;;;5047262;28;20071;-69
2021/06/07 01:13:24;;;;;;;1.60;0.73;;;14.10;90.60;;;;;;5038469;28;20073;-69
2021/06/07 01:15:53;;;;;;;0.70;0.68;;;14.10;90.60;;;;;;5041299;28;20530;-69
2021/06/07 01:18:21;;;;;;;0.88;0.80;;;14.00;90.60;;;;;;5036936;28;20142;-69
2021/06/07 01:20:49;;;;;;;1.50;0.73;;;14.00;90.70;;;;;;5041816;28;20077;-69
2021/06/07 01:23:16;;;;;;;0.73;0.63;;;13.90;90.60;;;;;;5061671;28;20426;-69
2021/06/07 01:25:44;;;;;;;2.35;0.73;;;13.90;90.70;;;;;;5033928;28;20334;-68
2021/06/07 01:28:13;;;;;;;1.92;0.55;;;13.90;90.70;;;;;;5049622;28;20107;-69
2021/06/07 01:30:44;;;;;;;0.77;0.73;;;13.80;90.70;;;;;;5037938;28;20054;-69
2021/06/07 01:33:12;;;;;;;0.50;0.50;;;13.80;90.70;;;;;;5044132;28;20513;-69
2021/06/07 01:35:40;;;;;;;0.70;0.65;;;13.70;90.70;;;;;;5046213;28;20077;-69
2021/06/07 01:38:10;;;;;;;0.95;0.65;;;13.70;90.70;;;;;;5039338;28;20418;-69
2021/06/07 01:40:46;;;;;;;1.55;0.80;;;13.70;90.70;;;;;;5043126;28;20081;-69
2021/06/07 01:43:13;;;;;;;2.03;0.60;;;13.60;90.70;;;;;;5052865;28;20049;-69
2021/06/07 01:45:43;;;;;;;1.30;0.70;;;13.60;90.70;;;;;;5050698;28;20507;-69
2021/06/07 01:48:11;;;;;;;1.63;0.60;;;13.60;90.70;;;;;;5044951;28;20136;-69
2021/06/07 01:50:39;;;;;;;0.50;0.50;;;13.50;90.70;;;;;;5051114;28;20061;-69
2021/06/07 01:53:09;;;;;;;;;;;13.50;90.80;;;;;;5051432;28;20493;-69
2021/06/07 01:55:39;;;;;;;0.55;0.55;;;13.50;90.70;;;;;;5049236;28;19972;-69
2021/06/07 01:58:08;;;;;;;0.50;0.50;;;13.40;90.90;;;;;;5060223;28;20080;-69
2021/06/07 02:00:37;;;;;;;2.00;0.65;;;13.40;90.70;;;;;;5041863;28;20088;-69
2021/06/07 02:03:05;;;;;;;0.85;0.60;;;13.40;90.70;;;;;;5053143;28;20140;-69
2021/06/07 02:05:33;;;;;;;2.30;0.70;;;13.30;90.60;;;;;;5039529;28;20072;-69
2021/06/07 02:08:04;;;;;;;0.50;0.50;;;13.30;90.70;;;;;;5056863;28;20491;-69
2021/06/07 02:10:34;;;;;;;1.70;0.70;;;13.30;90.80;;;;;;5051777;28;20124;-69
2021/06/07 02:13:01;;;;;;;0.80;0.63;;;13.20;90.70;;;;;;5061906;28;20127;-69
2021/06/07 02:15:28;;;;;;;2.13;0.80;;;13.20;90.80;;;;;;5054463;28;20088;-69
2021/06/07 02:18:00;;;;;;;0.75;0.68;;;13.20;90.80;;;;;;5053422;28;20511;-69
2021/06/07 02:20:26;;;;;;;0.98;0.70;;;13.20;90.80;;;;;;5056704;28;20076;-69
2021/06/07 02:22:53;;;;;;;1.73;0.70;;;13.10;90.80;;;;;;5048034;28;20088;-69
2021/06/07 02:25:39;;;;;;;1.38;0.70;;;13.10;90.80;;;;;;5044609;28;20092;-69
2021/06/07 02:28:11;;;;;;;0.88;0.80;;;13.10;90.80;;;;;;5057814;28;20083;-69
2021/06/07 02:30:38;;;;;;;0.60;0.60;;;13.00;90.70;;;;;;5048752;28;20499;-69
2021/06/07 02:33:05;;;;;;;1.00;0.80;;;13.00;90.70;;;;;;5049719;28;20077;-69
2021/06/07 02:35:32;;;;;;;0.70;0.70;;;12.90;90.70;;;;;;5052872;28;20084;-69
2021/06/07 02:37:59;;;;;;;0.70;0.70;;;12.90;90.70;;;;;;5044951;28;20053;-69
2021/06/07 02:40:29;;;;;;;1.08;0.70;;;12.80;90.70;;;;;;5031960;28;22073;-68
2021/06/07 02:42:56;;;;;;;1.30;0.70;;;12.80;90.80;;;;;;5063058;28;20594;-68
2021/06/07 02:45:24;;;;;;;;;;;12.80;90.80;;;;;;5045760;28;20400;-68
2021/06/07 02:47:54;;;;;;;0.80;0.80;;;12.70;90.70;;;;;;5046600;28;19920;-69
2021/06/07 02:50:24;;;;;;;0.95;0.70;;;12.70;90.60;;;;;;5042039;28;20046;-69
2021/06/07 02:52:52;;;;;;;1.15;0.70;;;12.70;90.70;;;;;;5044952;28;20059;-69
2021/06/07 02:55:25;;;;;;;1.35;0.80;;;12.70;90.70;;;;;;5044958;28;20069;-69
2021/06/07 02:57:53;;;;;;;0.60;0.60;;;12.60;90.70;;;;;;5023571;28;20464;-69
2021/06/07 03:00:24;;;;;;;0.98;0.77;;;12.60;90.70;;;;;;5050019;28;20038;-69
2021/06/07 03:02:51;;;;;;;1.50;0.90;;;12.60;90.80;;;;;;5052045;28;20429;-69
2021/06/07 03:05:18;;;;;;;2.35;1.00;;;12.50;90.80;;;;;;5034822;28;20134;-69
2021/06/07 03:07:44;;;;;;;0.80;0.60;;;12.50;90.80;;;;;;5046997;28;20128;-69
2021/06/07 03:10:12;;;;;;;1.23;0.82;;;12.50;90.90;;;;;;5048192;28;20485;-69
2021/06/07 03:12:39;;;;;;;0.60;0.60;;;12.40;90.90;;;;;;5062538;28;20131;-69
2021/06/07 03:15:08;;;;;;;0.77;0.77;;;12.40;90.90;;;;;;5045420;28;20040;-68
2021/06/07 03:17:35;;;;;;;2.92;0.90;;;12.30;91.00;;;;;;5026926;28;20079;-68
2021/06/07 03:20:12;;;;;;;1.13;0.70;;;12.30;91.10;;;;;;5048937;28;20052;-69
2021/06/07 03:22:39;;;;;;;0.80;0.75;;;12.30;91.10;;;;;;5064985;28;20127;-69
2021/06/07 03:25:07;;;;;;;2.80;0.85;;;12.30;91.10;;;;;;5048735;28;20495;-68
2021/06/07 03:27:34;;;;;;;0.70;0.70;;;12.30;91.00;;;;;;5048367;28;20500;-69
2021/06/07 03:30:02;;;;;;;1.13;0.85;;;12.20;91.00;;;;;;5048271;28;20472;-69
2021/06/07 03:32:29;;;;;;;1.00;0.70;;;12.20;91.00;;;;;;5039783;28;20084;-68
2021/06/07 03:34:56;;;;;;;2.10;0.80;;;12.20;91.00;;;;;;5046331;28;20057;-68
2021/06/07 03:37:23;;;;;;;1.75;0.80;;;12.20;91.00;;;;;;5038261;28;20076;-68
2021/06/07 03:39:49;;;;;;;0.95;0.70;;;12.20;91.10;;;;;;5034377;28;20133;-68
2021/06/07 03:42:16;;;;;;;2.30;1.00;;;12.10;91.00;;;;;;5043327;28;20049;-68
2021/06/07 03:44:43;;;;;;;0.68;0.68;;;12.10;91.10;;;;;;5055189;28;20083;-68
2021/06/07 03:47:10;;;;;;;1.23;0.70;;;12.10;91.10;;;;;;5041016;28;20149;-68
2021/06/07 03:49:36;;;;;;;1.00;0.70;;;12.10;91.10;;;;;;5053014;28;20373;-68
2021/06/07 03:52:04;;;;;;;0.63;0.60;;;12.10;91.40;;;;;;5037184;28;20131;-67
2021/06/07 03:54:30;;;;;;;1.77;0.80;;;12.10;91.20;;;;;;5039507;28;20045;-67
2021/06/07 03:56:57;;;;;;;4.22;0.60;;;12.10;91.30;;;;;;5044238;28;20469;-68
2021/06/07 03:59:24;;;;;;;0.93;0.60;;;12.10;91.30;;;;;;5049454;28;20172;-68
2021/06/07 04:01:50;;;;;;;2.30;0.88;;;12.20;91.40;;;;;;5036618;28;20544;-68
2021/06/07 04:04:17;;;;;;;0.70;0.70;;;12.20;91.50;;;;;;5048991;28;20047;-67
2021/06/07 04:06:44;;;;;;;1.38;0.90;;;12.30;91.70;;;;;;5030929;28;20072;-68
2021/06/07 04:09:11;;;;;;;0.50;0.50;;;12.30;91.80;;;;;;5054724;28;20452;-68
2021/06/07 04:11:38;;;;;;;0.63;0.60;;;12.30;91.90;;;;;;5047545;28;20083;-68
2021/06/07 04:14:04;;;;;;;0.60;0.60;;;12.40;92.00;;;;;;5045474;28;20138;-68
2021/06/07 04:16:31;;;;;;;0.60;0.60;;;12.40;92.10;;;;;;5057241;28;20129;-68
2021/06/07 04:18:58;;;;;;;0.60;0.60;;;12.50;92.20;;;;;;5048577;28;20053;-68
2021/06/07 04:21:25;;;;;;;0.50;0.50;;;12.50;92.20;;;;;;5026227;28;20073;-68
2021/06/07 04:23:51;;;;;;;0.80;0.80;;;12.60;92.30;;;;;;5060038;28;20084;-68
2021/06/07 04:26:18;;;;;;;1.13;0.70;;;12.70;92.40;;;;;;5040569;28;20176;-68
2021/06/07 04:28:45;;;;;;;0.85;0.85;;;12.70;92.50;;;;;;5060882;28;20131;-68
2021/06/07 04:31:11;;;;;;;1.73;0.80;;;12.80;92.60;;;;;;5033816;28;20076;-68
2021/06/07 04:33:38;;;;;;;1.02;0.80;;;12.90;92.70;;;;;;5046352;28;20052;-68
2021/06/07 04:36:05;;;;;;;1.00;0.90;;;12.90;92.80;;;;;;5030302;28;20155;-68
2021/06/07 04:38:32;;;;;;;1.25;0.80;;;13.00;92.90;;;;;;5042521;28;20131;-68
2021/06/07 04:40:59;;;;;;;1.02;0.80;;;13.00;92.90;;;;;;5048665;28;20067;-68
2021/06/07 04:43:25;;;;;;;1.95;0.85;;;13.10;93.10;;;;;;5047714;28;20450;-68
2021/06/07 04:45:52;;;;;;;2.33;0.77;;;13.10;93.30;;;;;;5031510;28;20044;-68
2021/06/07 04:48:19;;;;;;;0.90;0.70;;;13.10;93.40;;;;;;5056081;28;20060;-68
2021/06/07 04:50:46;;;;;;;1.40;0.80;;;13.20;93.60;;;;;;5051679;28;20049;-68
2021/06/07 04:53:13;;;;;;;1.77;0.90;;;13.20;93.70;;;;;;5049524;28;20076;-68
2021/06/07 04:55:46;;;;;;;0.80;0.80;;;13.30;93.90;;;;;;5069205;28;20445;-68
2021/06/07 04:58:27;;;;;;;2.15;0.80;;;13.40;94.00;;;;;;5040278;28;20160;-68
2021/06/07 05:00:57;;;;;;;1.52;0.90;;;13.50;94.10;;;;;;5039643;28;20045;-68
2021/06/07 05:03:27;;;;;;;1.48;0.88;;;13.60;94.30;;;;;;5050227;28;20136;-68
2021/06/07 05:05:55;;;;;;;1.13;1.00;;;13.70;94.50;;;;;;5048953;28;20467;-68
2021/06/07 05:08:23;;;;;;;1.23;0.88;;;13.70;94.50;;;;;;5058233;28;20076;-68
2021/06/07 05:10:50;;;;;;;1.77;0.80;;;13.80;94.80;;;;;;5043244;28;20107;-68
2021/06/07 05:13:17;;;;;;;1.30;0.70;;;13.90;94.80;;;;;;5066217;28;20127;-68
2021/06/07 05:15:44;;;;;;;2.03;0.80;;;14.00;95.00;;;;;;5049788;28;20478;-68
2021/06/07 05:18:11;;;;;;;0.90;0.77;;;14.20;95.10;;;;;;5058079;28;20493;-68
2021/06/07 05:20:39;;;;;;;2.17;0.80;;;14.20;95.20;;;;;;5053903;28;20493;-68
2021/06/07 05:23:07;;;;;;;3.38;0.73;;;14.40;95.30;;;;;;5056037;28;20139;-68
2021/06/07 05:25:35;;;;;;;1.75;0.90;;;14.50;95.40;;;;;;5054300;28;20495;-68
2021/06/07 05:28:03;;;;;;;;;;;14.60;95.50;;;;;;5039948;28;20071;-68
2021/06/07 05:30:30;;;;;;;;;;;14.80;95.90;;;;;;5062001;28;19921;-68
2021/06/07 05:32:58;;;;;;;1.40;0.70;;;14.90;96.00;;;;;;5053305;28;20031;-68
2021/06/07 05:35:28;;;;;;;1.15;0.50;;;15.10;95.80;;;;;;5054952;28;20337;-68
2021/06/07 05:37:57;;;;;;;1.23;0.50;;;15.30;95.90;;;;;;5052547;28;20106;-68
2021/06/07 05:40:26;;;;;;;0.80;0.50;;;15.50;96.00;;;;;;5034666;28;20076;-68
2021/06/07 05:42:54;;;;;;;0.90;0.50;;;15.70;96.00;;;;;;5055969;28;20494;-68
2021/06/07 05:45:21;;;;;;;0.57;0.50;;;15.80;96.00;;;;;;5055982;28;20456;-68
2021/06/07 05:47:49;;;;;;;4.55;0.80;;;16.00;96.10;;;;;;5021373;28;20570;-68
2021/06/07 05:50:18;;;;;;;1.65;0.43;;;16.10;96.20;;;;;;5041869;28;20046;-68
2021/06/07 05:52:47;;;;;;;1.95;0.52;;;16.20;96.20;;;;;;5039677;28;20068;-68
2021/06/07 05:55:15;;;;;;;2.30;0.50;;;16.30;96.10;;;;;;5056486;28;20098;-68
2021/06/07 05:57:42;;;;;;;1.55;0.45;;;16.50;96.20;;;;;;5050723;28;20073;-68
2021/06/07 06:00:09;;;;;;;0.68;0.45;;;16.60;96.20;;;;;;5043838;28;20057;-68
2021/06/07 06:02:36;;;;;;;1.63;0.40;;;16.60;96.20;;;;;;5027249;28;20052;-68
2021/06/07 06:05:03;;;;;;;1.05;0.47;;;16.80;96.20;;;;;;5045121;28;20158;-68
2021/06/07 06:07:31;;;;;;;0.57;0.45;;;16.80;96.20;;;;;;5050348;28;20044;-68
2021/06/07 06:09:58;;;;;;;1.23;0.50;;;17.00;96.30;;;;;;5059828;28;20103;-68
2021/06/07 06:12:25;;;;;;;0.30;0.30;;;17.10;96.30;;;;;;5045248;28;20077;-68
2021/06/07 06:14:52;;;;;;;2.45;0.20;;;17.10;96.20;;;;;;5042803;28;20454;-67
2021/06/07 06:17:19;;;;;;;1.85;0.32;;;17.30;96.20;;;;;;5020495;28;20531;-68
2021/06/07 06:19:46;;;;;;;0.45;0.30;;;17.30;96.20;;;;;;5029273;28;20451;-68
2021/06/07 06:22:16;;;;;;;0.73;0.40;;;17.50;96.20;;;;;;5034859;28;20045;-68
2021/06/07 06:24:45;;;;;;;1.42;0.40;;;17.50;96.20;;;;;;5036082;28;20077;-68
2021/06/07 06:27:13;;;;;;;0.85;0.40;;;17.60;96.20;;;;;;5063479;28;20320;-68
2021/06/07 06:29:41;;;;;;;;;;;17.70;96.20;;;;;;5045351;28;20054;-68
2021/06/07 06:32:09;;;;;;;1.40;0.40;;;17.70;95.80;;;;;;5040620;28;19963;-68
2021/06/07 06:34:37;;;;;;;;;;;17.80;95.90;;;;;;5040396;28;20080;-68
2021/06/07 06:37:04;;;;;;;0.57;0.30;;;17.80;95.60;;;;;;5036831;28;19983;-68
2021/06/07 06:39:31;;;;;;;1.23;0.40;;;17.90;95.70;;;;;;5033341;28;20143;-69
2021/06/07 06:41:58;;;;;;;0.50;0.30;;;17.90;95.80;;;;;;5039976;28;20088;-69
2021/06/07 06:44:25;;;;;;;0.55;0.35;;;17.90;95.40;;;;;;5035550;28;20131;-68
2021/06/07 06:46:52;;;;;;;0.52;0.30;;;18.00;95.40;;;;;;5032141;28;20132;-69
2021/06/07 06:49:19;;;;;;;0.80;0.30;;;18.10;95.60;;;;;;5037716;28;20058;-68
2021/06/07 06:51:45;;;;;;;1.73;0.50;;;18.10;95.20;;;;;;5023555;28;20475;-68
2021/06/07 06:54:12;;;;;;;0.50;0.25;;;18.20;95.10;;;;;;5017840;28;20069;-68
2021/06/07 06:56:39;;;;;;;0.80;0.30;;;18.20;95.00;;;;;;5046098;28;20076;-68
2021/06/07 06:59:06;;;;;;;0.75;0.47;;;18.30;94.90;;;;;;5069361;28;20406;-68
2021/06/07 07:01:32;;;;;;;1.48;0.30;;;18.40;94.80;;;;;;5063084;28;20136;-68
2021/06/07 07:03:59;;;;;;;1.05;0.35;;;18.40;94.80;;;;;;5069373;28;20087;-68
2021/06/07 07:06:26;;;;;;;0.38;0.35;;;18.50;94.70;;;;;;5047832;28;20091;-68
2021/06/07 07:08:53;;;;;;;0.30;0.30;;;18.50;94.60;;;;;;5047610;28;20053;-68
2021/06/07 07:11:21;;;;;;;0.43;0.30;;;18.60;94.60;;;;;;5031759;28;20569;-68
2021/06/07 07:13:51;;;;;;;1.20;0.40;;;18.60;94.50;;;;;;5033725;28;20056;-68
2021/06/07 07:16:17;;;;;;;1.15;0.50;;;18.70;94.40;;;;;;5021333;28;20342;-68
2021/06/07 07:18:44;;;;;;;1.75;0.40;;;18.70;94.40;;;;;;5022649;28;20049;-68
2021/06/07 07:21:11;;;;;;;0.88;0.30;;;18.70;94.30;;;;;;5038967;28;20045;-67
2021/06/07 07:23:38;;;;;;;0.85;0.30;;;18.80;94.20;;;;;;5021667;28;20122;-69
2021/06/07 07:26:05;;;;;;;1.65;0.65;;;18.80;94.20;;;;;;5024028;28;20643;-68
2021/06/07 07:28:32;;;;;;;1.15;0.40;;;18.90;94.20;;;;;;5028461;28;20069;-67
2021/06/07 07:30:58;;;;;;;0.50;0.32;;;19.00;94.20;;;;;;5027996;28;20607;-68
2021/06/07 07:33:36;;;;;;;0.70;0.30;;;19.00;93.80;;;;;;5029769;28;20065;-68
2021/06/07 07:36:09;;;;;;;1.95;0.30;;;19.10;93.80;;;;;;5028662;28;22442;-68
2021/06/07 07:38:36;;;;;;;0.52;0.30;;;19.10;93.60;;;;;;5046426;28;20464;-68
2021/06/07 07:41:03;;;;;;;0.50;0.30;;;19.10;93.40;;;;;;5041342;28;20077;-70
2021/06/07 07:43:30;;;;;;;1.30;0.38;;;19.10;93.50;;;;;;5029988;28;20597;-70
2021/06/07 07:45:59;;;;;;;1.10;0.28;;;19.20;93.50;;;;;;5038167;28;20139;-70
2021/06/07 07:48:26;;;;;;;1.35;0.35;;;19.20;93.40;;;;;;5054073;28;20144;-70
2021/06/07 07:50:53;;;;;;;0.75;0.38;;;19.20;93.40;;;;;;5052726;28;20121;-70
2021/06/07 07:53:20;;;;;;;0.63;0.50;;;19.30;93.50;;;;;;5071134;28;20084;-70
2021/06/07 07:55:50;;;;;;;2.05;0.57;;;19.40;93.30;;;;;;5050818;28;20045;-67
2021/06/07 07:58:17;;;;;;;1.30;0.45;;;19.40;93.50;;;;;;5048568;28;20526;-67
2021/06/07 08:00:47;;;;;;;1.15;0.30;;;19.40;93.20;;;;;;5037031;28;20080;-66
2021/06/07 08:03:14;;;;;;;1.77;0.77;;;19.50;93.10;;;;;;5061926;28;20124;-67
2021/06/07 08:05:41;;;;;;;1.05;0.50;;;19.60;93.00;;;;;;5066392;28;20461;-67
2021/06/07 08:08:08;;;;;;;1.35;0.50;;;19.60;93.40;;;;;;5055421;28;20156;-67
2021/06/07 08:10:35;;;;;;;1.98;0.55;;;19.60;93.00;;;;;;5047643;28;20544;-68
2021/06/07 08:13:02;;;;;;;2.55;0.40;;;19.80;93.10;;;;;;5047835;28;20135;-67
2021/06/07 08:15:30;;;;;;;;;;;19.80;93.10;;;;;;5055711;28;20431;-67
2021/06/07 08:17:57;;;;;;;1.00;0.52;;;19.90;93.00;;;;;;5043866;28;20051;-67
2021/06/07 08:20:24;;;;;;;1.70;0.50;;;19.90;93.20;;;;;;5050636;28;20037;-68
2021/06/07 08:22:52;;;;;;;1.50;0.77;;;20.00;93.10;;;;;;5041699;28;20084;-67
2021/06/07 08:25:20;;;;;;;0.77;0.35;;;20.00;93.00;;;;;;5057054;28;20087;-67
2021/06/07 08:27:47;;;;;;;2.35;0.90;;;20.00;93.00;;;;;;5075256;28;20081;-67
2021/06/07 08:30:15;;;;;;;1.67;0.70;;;20.10;93.00;;;;;;5060490;28;20053;-68
2021/06/07 08:32:42;;;;;;;1.77;0.60;;;20.20;92.90;;;;;;5051734;28;20056;-67
2021/06/07 08:35:10;;;;;;;1.88;0.60;;;20.20;92.90;;;;;;5043054;28;20511;-67
2021/06/07 08:37:37;;;;;;;;;;;20.20;92.90;;;;;;5047138;28;20126;-68
2021/06/07 08:40:07;;;;;;;1.33;0.40;;;20.30;92.50;;;;;;5049244;28;19921;-67
2021/06/07 08:42:37;;;;;;;2.80;0.70;;;20.30;92.70;;;;;;5054987;28;20087;-67
2021/06/07 08:45:11;;;;;;;2.15;0.73;;;20.30;92.70;;;;;;5050671;28;20457;-68
2021/06/07 08:47:45;;;;;;;3.08;0.90;;;20.30;92.80;;;;;;5047796;28;20052;-67
2021/06/07 08:50:14;;;;;;;1.63;0.70;;;20.20;92.60;;;;;;5054156;28;20077;-67
2021/06/07 08:52:43;;;;;;;2.10;0.80;;;20.20;92.60;;;;;;5049644;28;20454;-68
2021/06/07 08:55:12;;;;;;;2.00;0.70;;;20.20;92.70;;;;;;5033560;28;20405;-67
2021/06/07 08:57:42;;;;;;;1.88;0.63;;;20.20;92.80;;;;;;5046338;28;20544;-67
2021/06/07 09:00:24;;;;;;;2.15;0.80;;;20.30;92.90;;;;;;5052320;28;20099;-67
2021/06/07 09:02:58;;;;;;;1.00;0.60;;;20.40;92.90;;;;;;5046543;28;20054;-68
2021/06/07 09:05:27;;;;;;;2.40;0.77;;;20.40;93.00;;;;;;5039431;28;20068;-68
2021/06/07 09:07:57;;;;;;;2.63;0.70;;;20.50;93.00;;;;;;5053858;28;20076;-68
2021/06/07 09:10:26;;;;;;;2.50;0.70;;;20.60;93.10;;;;;;5059080;28;20076;-68
2021/06/07 09:13:00;;;;;;;2.78;1.05;;;20.60;93.10;;;;;;5052030;28;20083;-68
2021/06/07 09:15:52;;;;;;;2.13;0.85;;;20.70;93.10;;;;;;5052356;28;20075;-68
2021/06/07 09:18:37;;;;;;;2.45;0.73;;;20.80;93.10;;;;;;5026722;28;20511;-68
2021/06/07 09:21:12;;;;;;;3.78;0.77;;;20.80;93.10;;;;;;5052504;28;20084;-67
2021/06/07 09:23:53;;;;;;;2.92;0.95;;;20.80;93.10;;;;;;5048872;28;20053;-67
2021/06/07 09:26:40;;;;;;;2.20;1.00;;;20.90;93.10;;;;;;5037268;28;20048;-68
2021/06/07 09:29:13;;;;;;;3.33;1.00;;;20.90;93.10;;;;;;5057104;28;20448;-68
2021/06/07 09:31:49;;;;;;;2.75;0.95;;;20.90;93.00;;;;;;5058285;28;20492;-68
2021/06/07 09:34:35;;;;;;;2.38;1.00;;;20.90;92.90;;;;;;5060923;28;20412;-68
2021/06/07 09:37:10;;;;;;;1.85;0.80;;;20.90;92.90;;;;;;5042700;28;20495;-68
2021/06/07 09:39:38;;;;;;;2.08;0.93;;;20.90;93.10;;;;;;5070804;28;20045;-68
2021/06/07 09:42:12;;;;;;;2.38;0.90;;;21.00;93.20;;;;;;5040489;28;20536;-68
2021/06/07 09:44:49;;;;;;;1.70;0.80;;;21.00;93.00;;;;;;5039525;28;20083;-68
2021/06/07 09:47:25;;;;;;;3.08;0.93;;;21.10;93.20;;;;;;5038034;28;20144;-68
2021/06/07 09:49:55;;;;;;;2.67;1.00;;;21.10;93.30;;;;;;5064404;28;20480;-67
2021/06/07 09:52:24;;;;;;;2.75;1.08;;;21.10;93.20;;;;;;5031363;28;20358;-68
2021/06/07 09:55:05;;;;;;;1.20;0.80;;;21.20;93.30;;;;;;5014198;28;20048;-68
2021/06/07 09:57:46;;;;;;;2.95;0.95;;;21.20;93.10;;;;;;5027953;28;20136;-68
2021/06/07 10:00:35;;;;;;;2.42;0.75;;;21.30;93.20;;;;;;5032490;28;20037;-67
2021/06/07 10:03:19;;;;;;;2.42;0.98;;;21.30;93.10;;;;;;5034108;28;20140;-68
2021/06/07 10:05:51;;;;;;;2.10;0.90;;;21.30;92.90;;;;;;5027972;28;20119;-68
2021/06/07 10:08:19;;;;;;;3.00;0.95;;;21.30;92.60;;;;;;5026366;28;20053;-67
2021/06/07 10:10:46;;;;;;;2.88;0.95;;;21.30;92.70;;;;;;5028180;28;20528;-68
2021/06/07 10:13:13;;;;;;;1.95;0.93;;;21.30;92.70;;;;;;5037622;28;20091;-67
2021/06/07 10:15:46;;;;;;;3.53;0.80;;;21.30;92.60;;;;;;5041818;28;20434;-68
2021/06/07 10:18:19;;;;;;;1.88;1.00;;;21.30;92.60;;;;;;5031624;28;20068;-67
2021/06/07 10:20:50;;;;;;;1.30;0.70;;;21.30;92.70;;;;;;5052379;28;20072;-67
2021/06/07 10:23:21;;;;;;;1.67;0.70;;;21.30;92.70;;;;;;5033190;28;20054;-68
2021/06/07 10:25:50;;;;;;;2.75;1.00;;;21.40;92.70;;;;;;5027526;28;20080;-68
2021/06/07 10:28:17;;;;;;;3.88;0.98;;;21.40;92.60;;;;;;5035201;28;20045;-67
2021/06/07 10:30:46;;;;;;;1.37;0.80;;;21.40;92.40;;;;;;5037030;28;20049;-67
2021/06/07 10:33:29;;;;;;;1.38;0.82;;;21.40;92.40;;;;;;5045742;28;20551;-67
2021/06/07 10:35:58;;;;;;;3.85;1.00;;;21.40;92.10;;;;;;5037421;28;22112;-68
2021/06/07 10:38:34;;;;;;;3.08;1.00;;;21.40;92.30;;;;;;5029644;28;20045;-68
2021/06/07 10:41:22;;;;;;;1.38;0.80;;;21.40;92.20;;;;;;5038935;28;20053;-68
2021/06/07 10:43:57;;;;;;;0.70;0.70;;;21.40;91.90;;;;;;5044929;28;20041;-67
2021/06/07 10:46:36;;;;;;;1.33;0.50;;;21.40;92.10;;;;;;5043909;28;20139;-68
2021/06/07 10:49:25;;;;;;;1.33;0.70;;;21.40;92.20;;;;;;5048493;28;20599;-67
2021/06/07 10:52:07;;;;;;;3.40;0.93;;;21.50;92.00;;;;;;5047789;28;20072;-68
2021/06/07 10:55:01;;;;;;;1.50;0.90;;;21.60;91.90;;;;;;5034339;28;20475;-68
2021/06/07 10:57:30;;;;;;;2.42;0.90;;;21.50;91.70;;;;;;5049925;28;20072;-68
2021/06/07 11:00:05;;;;;;;1.25;0.90;;;21.60;91.90;;;;;;5051866;28;20490;-68
2021/06/07 11:02:36;;;;;;;0.70;0.57;;;21.70;91.90;;;;;;5025947;28;20540;-68
2021/06/07 11:05:05;;;;;;;1.40;0.70;;;21.70;91.90;;;;;;5049456;28;20068;-68
2021/06/07 11:07:33;;;;;;;4.38;0.77;;;21.70;92.10;;;;;;5043027;28;20441;-68
2021/06/07 11:10:27;;;;;;;1.15;0.70;;;21.80;92.00;;;;;;5054992;28;20496;-67
2021/06/07 11:12:59;;;;;;;2.40;0.90;;;21.80;91.20;;;;;;5046883;28;20068;-67
2021/06/07 11:15:31;;;;;;;1.48;0.90;;;21.80;91.80;;;;;;5047975;28;20112;-67
2021/06/07 11:18:19;;;;;;;0.70;0.70;;;21.80;91.80;;;;;;5046113;28;20140;-68
2021/06/07 11:20:53;;;;;;;1.60;0.70;;;21.90;91.50;;;;;;5043974;28;20045;-67
2021/06/07 11:23:29;;;;;;;2.15;0.80;;;21.90;91.70;;;;;;5046789;28;20073;-67
2021/06/07 11:25:57;;;;;;;1.65;0.80;;;21.90;91.10;;;;;;5048480;28;20131;-68
2021/06/07 11:28:32;;;;;;;1.10;0.60;;;21.90;91.40;;;;;;5050333;28;20075;-68
2021/06/07 11:31:00;;;;;;;1.50;1.00;;;21.90;91.50;;;;;;5052515;28;20076;-68
2021/06/07 11:33:27;;;;;;;3.40;0.82;;;22.00;91.50;;;;;;5050917;28;20081;-68
2021/06/07 11:35:55;;;;;;;1.52;0.80;;;22.00;91.50;;;;;;5059343;28;20044;-68
2021/06/07 11:38:34;;;;;;;1.80;0.80;;;22.00;91.50;;;;;;5049125;28;20048;-68
2021/06/07 11:41:06;;;;;;;1.15;0.57;;;22.10;91.40;;;;;;5044220;28;20213;-68
2021/06/07 11:43:45;;;;;;;1.00;0.70;;;22.10;91.50;;;;;;5044805;28;20479;-68
2021/06/07 11:46:30;;;;;;;2.78;0.80;;;22.20;91.60;;;;;;5030710;28;20377;-68
2021/06/07 11:49:13;;;;;;;0.82;0.70;;;22.30;91.60;;;;;;5016540;28;23522;-68
2021/06/07 11:51:43;;;;;;;1.58;0.63;;;22.30;91.70;;;;;;5042117;28;20646;-68
2021/06/07 11:54:25;;;;;;;1.30;0.70;;;22.40;91.70;;;;;;5044383;28;20174;-68
2021/06/07 11:56:52;;;;;;;1.90;0.70;;;22.40;91.70;;;;;;5042026;28;20132;-68
2021/06/07 11:59:28;;;;;;;2.03;0.70;;;22.50;91.70;;;;;;5043595;28;20084;-68
2021/06/07 12:01:54;;;;;;;5.47;1.20;;;22.50;91.70;;;;;;5050402;28;20095;-68
2021/06/07 12:04:26;;;;;;;2.28;0.88;;;22.50;91.70;;;;;;5066190;28;20365;-67
2021/06/07 12:07:05;;;;;;;2.15;0.88;;;22.60;91.70;;;;;;5043205;28;20081;-68
2021/06/07 12:09:34;;;;;;;2.15;0.90;;;22.60;91.70;;;;;;5048406;28;20477;-68
2021/06/07 12:12:02;;;;;;;1.38;0.88;;;22.50;91.50;;;;;;5046515;28;20049;-68
2021/06/07 12:14:39;;;;;;;2.45;0.88;;;22.50;91.50;;;;;;5048714;28;20097;-67
2021/06/07 12:17:19;;;;;;;1.60;0.90;;;22.50;91.50;;;;;;5046720;28;20079;-67
2021/06/07 12:19:54;;;;;;;2.97;0.90;;;22.50;91.50;;;;;;5049867;28;20041;-68
2021/06/07 12:22:30;;;;;;;1.48;1.00;;;22.50;91.40;;;;;;5025185;28;20451;-67
2021/06/07 12:30:35;;;;;;;2.75;0.82;;;22.50;91.30;;;;;;5052646;28;20093;-68
2021/06/07 12:33:04;;;;;;;1.45;0.90;;;22.60;91.40;;;;;;5047912;28;20048;-68
2021/06/07 12:35:32;;;;;;;1.38;0.88;;;22.60;91.40;;;;;;5024136;28;20085;-68
2021/06/07 12:38:09;;;;;;;0.93;0.80;;;22.70;91.40;;;;;;5060494;28;20385;-67
2021/06/07 12:40:41;;;;;;;1.25;0.90;;;22.80;91.50;;;;;;5047746;28;20040;-67
2021/06/07 12:43:08;;;;;;;1.05;0.90;;;22.80;91.40;;;;;;5048735;28;20071;-69
2021/06/07 12:45:38;;;;;;;5.57;0.90;;;22.80;91.20;;;;;;5049086;28;20386;-68
2021/06/07 12:48:23;;;;;;;4.32;1.00;;;22.80;91.10;;;;;;5034306;28;20049;-68
2021/06/07 12:51:06;;;;;;;2.03;0.98;;;22.70;91.00;;;;;;5048307;28;20052;-68
2021/06/07 12:53:41;;;;;;;2.47;0.80;;;22.70;91.10;;;;;;5050181;28;20154;-67
2021/06/07 12:56:27;;;;;;;3.88;0.90;;;22.70;91.20;;;;;;5045533;28;20077;-68
2021/06/07 12:58:57;;;;;;;1.48;0.80;;;22.80;91.30;;;;;;5057533;28;20102;-68
2021/06/07 13:01:44;;;;;;;1.73;0.98;;;22.80;91.10;;;;;;5053409;28;20131;-68
2021/06/07 13:04:12;;;;;;;1.70;0.80;;;22.80;90.80;;;;;;5053129;28;20484;-68
2021/06/07 13:06:50;;;;;;;6.85;1.20;;;22.80;91.00;;;;;;5054043;28;20072;-67
2021/06/07 13:09:16;;;;;;;1.10;0.88;;;22.80;91.10;;;;;;5052891;28;20124;-68